Terminal Aerodrome Forecast
Issued by NWS Sterling, VA

Current Version | Previous Version | Text Only | Print | Product List | Glossary Off
Versions: 1 2 3 4 5 6 7 8 9 10 11 12 13 14 15 16 17 18 19 20 21 22 23 24 25 26 27 28

000
FTUS41 KLWX 242000 AAA
TAFIAD
TAF AMD
KIAD 242036Z 2421/2524 18006KT 5SM -RA BR OVC004
     FM242300 19010KT 3SM -SHRA BR VCTS OVC005CB WS020/21045KT
     FM250500 25013KT 3SM -SHRA BR OVC060
     FM250800 28012KT P6SM OVC080
     FM251400 27011KT P6SM SCT250
     FM251500 27013G24KT P6SM SCT030
     FM252100 28013G24KT P6SM FEW250
     FM252200 28011KT P6SM FEW250=

USA.gov is the U.S. government's official web portal to all federal, state and local government web resources and services.